sensor_id;sensor_type;location;lat;lon;timestamp;pressure;altitude;pressure_sealevel;temperature;humidity
54870;BME280;40756;-37.950;145.008;2022-08-11T00:00:14;101218.07;;;16.15;35.30
54870;BME280;40756;-37.950;145.008;2022-08-11T00:02:46;101219.35;;;16.19;35.00
54870;BME280;40756;-37.950;145.008;2022-08-11T00:05:18;101223.98;;;16.41;34.41
54870;BME280;40756;-37.950;145.008;2022-08-11T00:07:50;101222.95;;;16.74;34.33
54870;BME280;40756;-37.950;145.008;2022-08-11T00:10:22;101225.90;;;16.50;34.44
54870;BME280;40756;-37.950;145.008;2022-08-11T00:12:54;101232.03;;;15.98;35.33
54870;BME280;40756;-37.950;145.008;2022-08-11T00:15:25;101235.04;;;15.89;35.30
54870;BME280;40756;-37.950;145.008;2022-08-11T00:17:58;101230.22;;;16.02;35.56
54870;BME280;40756;-37.950;145.008;2022-08-11T00:20:31;101230.64;;;16.45;35.52
54870;BME280;40756;-37.950;145.008;2022-08-11T00:23:07;101234.74;;;16.71;34.72
54870;BME280;40756;-37.950;145.008;2022-08-11T00:25:40;101225.40;;;16.19;35.29
54870;BME280;40756;-37.950;145.008;2022-08-11T00:28:29;101223.69;;;15.29;35.98
54870;BME280;40756;-37.950;145.008;2022-08-11T00:31:03;101237.79;;;15.21;36.49
54870;BME280;40756;-37.950;145.008;2022-08-11T00:33:37;101233.46;;;15.64;36.44
54870;BME280;40756;-37.950;145.008;2022-08-11T00:36:09;101232.92;;;13.51;39.06
54870;BME280;40756;-37.950;145.008;2022-08-11T00:38:42;101240.44;;;14.49;38.40
54870;BME280;40756;-37.950;145.008;2022-08-11T00:41:19;101235.16;;;14.94;38.70
54870;BME280;40756;-37.950;145.008;2022-08-11T00:44:43;101238.58;;;14.71;38.57
54870;BME280;40756;-37.950;145.008;2022-08-11T00:47:23;101238.68;;;14.36;38.73
54870;BME280;40756;-37.950;145.008;2022-08-11T00:50:07;101248.43;;;15.25;38.69
54870;BME280;40756;-37.950;145.008;2022-08-11T00:53:06;101252.28;;;14.67;38.39
54870;BME280;40756;-37.950;145.008;2022-08-11T00:56:19;101258.26;;;14.98;38.48
54870;BME280;40756;-37.950;145.008;2022-08-11T00:59:39;101258.00;;;13.70;39.73
54870;BME280;40756;-37.950;145.008;2022-08-11T01:02:19;101245.88;;;14.53;39.35
54870;BME280;40756;-37.950;145.008;2022-08-11T01:05:33;101250.87;;;14.46;38.93
54870;BME280;40756;-37.950;145.008;2022-08-11T01:09:00;101246.83;;;14.05;39.59
54870;BME280;40756;-37.950;145.008;2022-08-11T01:12:25;101235.39;;;13.38;40.88
54870;BME280;40756;-37.950;145.008;2022-08-11T01:17:54;101219.67;;;14.91;39.79
54870;BME280;40756;-37.950;145.008;2022-08-11T01:21:35;101228.01;;;14.04;39.84
54870;BME280;40756;-37.950;145.008;2022-08-11T01:25:02;101227.34;;;14.38;40.78
54870;BME280;40756;-37.950;145.008;2022-08-11T01:28:11;101234.61;;;13.85;42.48
54870;BME280;40756;-37.950;145.008;2022-08-11T01:32:25;101219.42;;;14.89;42.14
54870;BME280;40756;-37.950;145.008;2022-08-11T01:35:33;101221.59;;;14.17;42.98
54870;BME280;40756;-37.950;145.008;2022-08-11T01:40:50;101222.20;;;14.16;43.27
54870;BME280;40756;-37.950;145.008;2022-08-11T01:43:56;101219.22;;;14.07;45.08
54870;BME280;40756;-37.950;145.008;2022-08-11T01:46:34;101209.73;;;13.62;46.96
54870;BME280;40756;-37.950;145.008;2022-08-11T01:49:14;101193.74;;;13.84;48.08
54870;BME280;40756;-37.950;145.008;2022-08-11T01:52:01;101189.34;;;14.03;48.50
54870;BME280;40756;-37.950;145.008;2022-08-11T01:54:39;101189.62;;;14.21;49.23
54870;BME280;40756;-37.950;145.008;2022-08-11T01:57:25;101175.99;;;14.10;48.58
54870;BME280;40756;-37.950;145.008;2022-08-11T02:00:06;101171.45;;;14.29;48.32
54870;BME280;40756;-37.950;145.008;2022-08-11T02:02:46;101164.05;;;14.16;47.60
54870;BME280;40756;-37.950;145.008;2022-08-11T02:05:28;101156.12;;;13.06;48.27
54870;BME280;40756;-37.950;145.008;2022-08-11T02:08:13;101152.45;;;13.65;48.02
54870;BME280;40756;-37.950;145.008;2022-08-11T02:10:53;101142.90;;;14.40;47.45
54870;BME280;40756;-37.950;145.008;2022-08-11T02:13:34;101127.52;;;14.47;46.99
54870;BME280;40756;-37.950;145.008;2022-08-11T02:16:15;101123.37;;;14.10;47.58
54870;BME280;40756;-37.950;145.008;2022-08-11T02:18:52;101126.27;;;14.38;46.90
54870;BME280;40756;-37.950;145.008;2022-08-11T02:21:28;101121.08;;;13.60;47.33
54870;BME280;40756;-37.950;145.008;2022-08-11T02:24:05;101115.31;;;14.12;46.97
54870;BME280;40756;-37.950;145.008;2022-08-11T02:26:43;101123.32;;;13.94;47.13
54870;BME280;40756;-37.950;145.008;2022-08-11T02:29:20;101128.84;;;14.22;47.36
54870;BME280;40756;-37.950;145.008;2022-08-11T02:32:03;101129.28;;;13.58;48.33
54870;BME280;40756;-37.950;145.008;2022-08-11T02:34:46;101126.03;;;13.23;48.92
54870;BME280;40756;-37.950;145.008;2022-08-11T02:37:24;101120.41;;;13.33;48.67
54870;BME280;40756;-37.950;145.008;2022-08-11T02:40:08;101117.54;;;12.92;49.42
54870;BME280;40756;-37.950;145.008;2022-08-11T02:42:54;101114.42;;;12.74;49.00
54870;BME280;40756;-37.950;145.008;2022-08-11T02:45:40;101108.88;;;13.79;48.30
54870;BME280;40756;-37.950;145.008;2022-08-11T02:48:28;101112.51;;;14.20;47.50
54870;BME280;40756;-37.950;145.008;2022-08-11T02:51:13;101109.33;;;14.23;47.21
54870;BME280;40756;-37.950;145.008;2022-08-11T02:53:53;101097.98;;;13.40;46.52
54870;BME280;40756;-37.950;145.008;2022-08-11T02:56:41;101098.78;;;13.50;47.08
54870;BME280;40756;-37.950;145.008;2022-08-11T02:59:24;101090.96;;;13.80;46.71
54870;BME280;40756;-37.950;145.008;2022-08-11T03:01:59;101087.25;;;13.94;46.45
54870;BME280;40756;-37.950;145.008;2022-08-11T03:04:40;101085.62;;;13.58;47.14
54870;BME280;40756;-37.950;145.008;2022-08-11T03:07:24;101086.00;;;13.94;46.80
54870;BME280;40756;-37.950;145.008;2022-08-11T03:10:07;101087.14;;;13.59;46.84
54870;BME280;40756;-37.950;145.008;2022-08-11T03:12:46;101080.14;;;13.80;46.75
54870;BME280;40756;-37.950;145.008;2022-08-11T03:15:21;101074.95;;;13.81;46.69
54870;BME280;40756;-37.950;145.008;2022-08-11T03:18:11;101081.62;;;13.41;47.54
54870;BME280;40756;-37.950;145.008;2022-08-11T03:20:48;101083.85;;;13.63;47.34
54870;BME280;40756;-37.950;145.008;2022-08-11T03:23:27;101075.86;;;13.56;47.02
54870;BME280;40756;-37.950;145.008;2022-08-11T03:26:04;101072.73;;;13.83;46.94
54870;BME280;40756;-37.950;145.008;2022-08-11T03:28:50;101078.35;;;13.02;47.77
54870;BME280;40756;-37.950;145.008;2022-08-11T03:31:26;101085.81;;;13.27;47.83
54870;BME280;40756;-37.950;145.008;2022-08-11T03:34:02;101081.75;;;13.61;47.79
54870;BME280;40756;-37.950;145.008;2022-08-11T03:37:46;101076.88;;;13.42;48.10
54870;BME280;40756;-37.950;145.008;2022-08-11T03:40:32;101084.55;;;13.19;48.90
54870;BME280;40756;-37.950;145.008;2022-08-11T03:43:10;101085.68;;;13.63;49.51
54870;BME280;40756;-37.950;145.008;2022-08-11T03:45:55;101091.27;;;13.34;50.95
54870;BME280;40756;-37.950;145.008;2022-08-11T03:48:39;101084.94;;;13.68;51.09
54870;BME280;40756;-37.950;145.008;2022-08-11T03:51:18;101092.63;;;13.13;51.28
54870;BME280;40756;-37.950;145.008;2022-08-11T03:54:05;101090.48;;;13.32;51.93
54870;BME280;40756;-37.950;145.008;2022-08-11T03:57:14;101099.47;;;12.68;53.25
54870;BME280;40756;-37.950;145.008;2022-08-11T04:00:08;101100.31;;;12.84;54.62
54870;BME280;40756;-37.950;145.008;2022-08-11T04:03:03;101086.10;;;13.27;54.87
54870;BME280;40756;-37.950;145.008;2022-08-11T04:06:33;101070.51;;;13.43;54.94
54870;BME280;40756;-37.950;145.008;2022-08-11T04:11:35;101064.51;;;13.14;56.11
54870;BME280;40756;-37.950;145.008;2022-08-11T04:14:32;101062.05;;;12.96;55.67
54870;BME280;40756;-37.950;145.008;2022-08-11T04:17:47;101027.16;;;13.84;54.92
54870;BME280;40756;-37.950;145.008;2022-08-11T04:20:29;101018.45;;;13.62;55.00
54870;BME280;40756;-37.950;145.008;2022-08-11T04:29:24;101024.86;;;13.60;55.70
54870;BME280;40756;-37.950;145.008;2022-08-11T04:32:25;101002.44;;;13.19;54.63
54870;BME280;40756;-37.950;145.008;2022-08-11T04:35:16;101006.01;;;13.19;53.81
54870;BME280;40756;-37.950;145.008;2022-08-11T04:38:15;101023.52;;;13.40;53.17
54870;BME280;40756;-37.950;145.008;2022-08-11T04:42:16;101028.42;;;12.94;52.16
54870;BME280;40756;-37.950;145.008;2022-08-11T04:46:37;101017.84;;;13.56;51.92
54870;BME280;40756;-37.950;145.008;2022-08-11T04:49:49;101031.35;;;13.01;51.27
54870;BME280;40756;-37.950;145.008;2022-08-11T04:53:25;101032.04;;;13.06;51.43
54870;BME280;40756;-37.950;145.008;2022-08-11T04:56:09;101020.20;;;13.25;50.51
54870;BME280;40756;-37.950;145.008;2022-08-11T04:59:01;101021.26;;;13.36;51.03
54870;BME280;40756;-37.950;145.008;2022-08-11T05:01:46;101019.68;;;13.73;50.87
54870;BME280;40756;-37.950;145.008;2022-08-11T05:04:48;101015.02;;;13.14;50.81
54870;BME280;40756;-37.950;145.008;2022-08-11T05:07:39;101003.79;;;13.49;50.94
54870;BME280;40756;-37.950;145.008;2022-08-11T05:10:27;101002.47;;;13.93;50.64
54870;BME280;40756;-37.950;145.008;2022-08-11T05:13:02;100998.37;;;13.91;50.69
54870;BME280;40756;-37.950;145.008;2022-08-11T05:15:51;100992.49;;;13.99;53.08
54870;BME280;40756;-37.950;145.008;2022-08-11T05:18:24;100984.84;;;14.21;51.09
54870;BME280;40756;-37.950;145.008;2022-08-11T05:20:56;100984.67;;;14.15;50.95
54870;BME280;40756;-37.950;145.008;2022-08-11T05:23:27;100982.90;;;14.75;50.48
54870;BME280;40756;-37.950;145.008;2022-08-11T05:25:58;100978.92;;;14.56;50.31
54870;BME280;40756;-37.950;145.008;2022-08-11T05:28:32;100973.59;;;14.57;49.64
54870;BME280;40756;-37.950;145.008;2022-08-11T05:31:06;100978.90;;;14.99;49.20
54870;BME280;40756;-37.950;145.008;2022-08-11T05:33:46;100969.69;;;15.50;47.60
54870;BME280;40756;-37.950;145.008;2022-08-11T05:36:23;100971.80;;;16.14;46.68
54870;BME280;40756;-37.950;145.008;2022-08-11T05:38:58;100973.63;;;16.77;45.09
54870;BME280;40756;-37.950;145.008;2022-08-11T05:41:30;100973.06;;;16.36;44.42
54870;BME280;40756;-37.950;145.008;2022-08-11T05:44:02;100977.45;;;16.87;43.25
54870;BME280;40756;-37.950;145.008;2022-08-11T05:46:39;100983.26;;;16.83;43.09
54870;BME280;40756;-37.950;145.008;2022-08-11T05:49:10;100977.57;;;17.08;43.39
54870;BME280;40756;-37.950;145.008;2022-08-11T05:51:42;100987.40;;;16.79;43.02
54870;BME280;40756;-37.950;145.008;2022-08-11T05:54:16;100985.30;;;16.99;44.26
54870;BME280;40756;-37.950;145.008;2022-08-11T05:56:56;100978.33;;;17.50;43.44
54870;BME280;40756;-37.950;145.008;2022-08-11T05:59:28;100971.74;;;17.06;42.55
54870;BME280;40756;-37.950;145.008;2022-08-11T06:02:03;100971.23;;;17.31;42.72
54870;BME280;40756;-37.950;145.008;2022-08-11T06:04:34;100980.72;;;16.91;42.36
54870;BME280;40756;-37.950;145.008;2022-08-11T06:07:07;100981.98;;;16.31;43.48
54870;BME280;40756;-37.950;145.008;2022-08-11T06:09:45;100981.98;;;16.07;43.47
54870;BME280;40756;-37.950;145.008;2022-08-11T06:12:19;100984.77;;;15.58;45.01
54870;BME280;40756;-37.950;145.008;2022-08-11T06:14:52;100990.81;;;15.58;44.75
54870;BME280;40756;-37.950;145.008;2022-08-11T06:17:24;100989.17;;;16.32;45.44
54870;BME280;40756;-37.950;145.008;2022-08-11T06:20:01;100988.57;;;16.85;43.99
54870;BME280;40756;-37.950;145.008;2022-08-11T06:22:37;100986.07;;;16.72;42.03
54870;BME280;40756;-37.950;145.008;2022-08-11T06:25:09;100986.68;;;17.17;41.39
54870;BME280;40756;-37.950;145.008;2022-08-11T06:27:40;100988.00;;;17.21;40.63
54870;BME280;40756;-37.950;145.008;2022-08-11T06:30:12;100986.83;;;17.72;40.89
54870;BME280;40756;-37.950;145.008;2022-08-11T06:32:43;100983.53;;;18.26;40.07
54870;BME280;40756;-37.950;145.008;2022-08-11T06:35:20;100979.92;;;18.10;38.44
54870;BME280;40756;-37.950;145.008;2022-08-11T06:38:07;100972.63;;;18.07;38.80
54870;BME280;40756;-37.950;145.008;2022-08-11T06:40:45;100967.65;;;17.84;38.60
54870;BME280;40756;-37.950;145.008;2022-08-11T06:43:20;100966.90;;;18.03;38.64
54870;BME280;40756;-37.950;145.008;2022-08-11T06:45:56;100961.98;;;18.19;39.28
54870;BME280;40756;-37.950;145.008;2022-08-11T06:48:31;100962.57;;;16.82;39.53
54870;BME280;40756;-37.950;145.008;2022-08-11T06:51:05;100966.94;;;17.32;40.58
54870;BME280;40756;-37.950;145.008;2022-08-11T06:53:39;100968.59;;;17.22;40.97
54870;BME280;40756;-37.950;145.008;2022-08-11T06:56:12;100971.80;;;16.91;41.55
54870;BME280;40756;-37.950;145.008;2022-08-11T06:58:42;100975.24;;;16.56;42.31
54870;BME280;40756;-37.950;145.008;2022-08-11T07:01:14;100982.19;;;16.43;42.51
54870;BME280;40756;-37.950;145.008;2022-08-11T07:03:47;100987.42;;;16.06;42.40
54870;BME280;40756;-37.950;145.008;2022-08-11T07:06:32;100991.03;;;16.29;42.51
54870;BME280;40756;-37.950;145.008;2022-08-11T07:09:17;100995.08;;;15.73;42.69
54870;BME280;40756;-37.950;145.008;2022-08-11T07:12:04;101004.79;;;14.67;44.31
54870;BME280;40756;-37.950;145.008;2022-08-11T07:14:40;101006.74;;;15.30;43.93
54870;BME280;40756;-37.950;145.008;2022-08-11T07:17:15;101006.51;;;13.72;46.40
54870;BME280;40756;-37.950;145.008;2022-08-11T07:19:50;101003.71;;;14.25;45.50
54870;BME280;40756;-37.950;145.008;2022-08-11T07:22:23;101006.07;;;14.10;46.32
54870;BME280;40756;-37.950;145.008;2022-08-11T07:24:57;101007.14;;;14.33;46.50
54870;BME280;40756;-37.950;145.008;2022-08-11T07:27:32;101007.84;;;14.59;45.46
54870;BME280;40756;-37.950;145.008;2022-08-11T07:30:08;101003.26;;;14.65;45.47
54870;BME280;40756;-37.950;145.008;2022-08-11T07:32:44;101007.32;;;14.20;45.80
54870;BME280;40756;-37.950;145.008;2022-08-11T07:35:21;101013.07;;;14.90;46.01
54870;BME280;40756;-37.950;145.008;2022-08-11T07:37:58;101012.10;;;14.65;45.90
54870;BME280;40756;-37.950;145.008;2022-08-11T07:40:29;101013.66;;;14.07;46.28
54870;BME280;40756;-37.950;145.008;2022-08-11T07:43:00;101017.95;;;14.04;46.10
54870;BME280;40756;-37.950;145.008;2022-08-11T07:45:32;101015.29;;;13.94;46.55
54870;BME280;40756;-37.950;145.008;2022-08-11T07:48:03;101013.95;;;14.57;45.97
54870;BME280;40756;-37.950;145.008;2022-08-11T07:50:34;101012.75;;;13.79;46.50
54870;BME280;40756;-37.950;145.008;2022-08-11T07:53:08;101017.79;;;14.08;46.11
54870;BME280;40756;-37.950;145.008;2022-08-11T07:55:38;101020.02;;;13.67;47.06
54870;BME280;40756;-37.950;145.008;2022-08-11T07:58:10;101015.80;;;13.71;46.93
54870;BME280;40756;-37.950;145.008;2022-08-11T08:00:44;101014.98;;;14.15;47.04
54870;BME280;40756;-37.950;145.008;2022-08-11T08:03:14;101015.64;;;14.04;47.17
54870;BME280;40756;-37.950;145.008;2022-08-11T08:05:44;101018.83;;;13.45;47.20
54870;BME280;40756;-37.950;145.008;2022-08-11T08:08:15;101012.37;;;13.82;47.31
54870;BME280;40756;-37.950;145.008;2022-08-11T08:10:46;101015.88;;;13.57;47.35
54870;BME280;40756;-37.950;145.008;2022-08-11T08:13:16;101011.85;;;13.68;47.43
54870;BME280;40756;-37.950;145.008;2022-08-11T08:15:46;101015.21;;;13.41;47.73
54870;BME280;40756;-37.950;145.008;2022-08-11T08:18:16;101019.25;;;13.70;47.65
54870;BME280;40756;-37.950;145.008;2022-08-11T08:20:48;101017.84;;;13.59;47.36
54870;BME280;40756;-37.950;145.008;2022-08-11T08:23:20;101016.95;;;13.91;47.37
54870;BME280;40756;-37.950;145.008;2022-08-11T08:25:52;101016.09;;;13.60;48.37
54870;BME280;40756;-37.950;145.008;2022-08-11T08:28:23;101014.21;;;14.21;47.52
54870;BME280;40756;-37.950;145.008;2022-08-11T08:30:52;101017.82;;;14.01;47.42
54870;BME280;40756;-37.950;145.008;2022-08-11T08:33:25;101015.46;;;14.14;47.29
54870;BME280;40756;-37.950;145.008;2022-08-11T08:35:58;101017.53;;;14.18;46.63
54870;BME280;40756;-37.950;145.008;2022-08-11T08:38:29;101022.33;;;13.77;46.72
54870;BME280;40756;-37.950;145.008;2022-08-11T08:40:58;101022.05;;;14.02;46.59
54870;BME280;40756;-37.950;145.008;2022-08-11T08:43:28;101023.45;;;13.82;46.42
54870;BME280;40756;-37.950;145.008;2022-08-11T08:45:59;101024.53;;;13.82;46.61
54870;BME280;40756;-37.950;145.008;2022-08-11T08:48:31;101028.55;;;13.85;46.52
54870;BME280;40756;-37.950;145.008;2022-08-11T08:51:04;101028.38;;;13.77;46.98
54870;BME280;40756;-37.950;145.008;2022-08-11T08:53:43;101029.49;;;13.38;47.19
54870;BME280;40756;-37.950;145.008;2022-08-11T08:56:14;101031.88;;;13.55;47.51
54870;BME280;40756;-37.950;145.008;2022-08-11T08:58:47;101032.67;;;13.42;47.58
54870;BME280;40756;-37.950;145.008;2022-08-11T09:01:19;101033.63;;;13.25;47.60
54870;BME280;40756;-37.950;145.008;2022-08-11T09:03:51;101036.06;;;13.09;47.99
54870;BME280;40756;-37.950;145.008;2022-08-11T09:06:21;101038.41;;;12.41;49.29
54870;BME280;40756;-37.950;145.008;2022-08-11T09:08:51;101035.87;;;13.03;48.58
54870;BME280;40756;-37.950;145.008;2022-08-11T09:11:23;101034.55;;;13.34;48.60
54870;BME280;40756;-37.950;145.008;2022-08-11T09:13:53;101031.25;;;13.14;48.61
54870;BME280;40756;-37.950;145.008;2022-08-11T09:16:25;101034.68;;;12.69;49.09
54870;BME280;40756;-37.950;145.008;2022-08-11T09:18:55;101036.91;;;13.08;48.85
54870;BME280;40756;-37.950;145.008;2022-08-11T09:21:25;101037.93;;;12.30;49.70
54870;BME280;40756;-37.950;145.008;2022-08-11T09:23:56;101044.02;;;12.83;49.57
54870;BME280;40756;-37.950;145.008;2022-08-11T09:26:26;101043.81;;;12.60;49.58
54870;BME280;40756;-37.950;145.008;2022-08-11T09:28:58;101044.16;;;12.78;49.76
54870;BME280;40756;-37.950;145.008;2022-08-11T09:31:30;101044.55;;;12.98;49.40
54870;BME280;40756;-37.950;145.008;2022-08-11T09:34:01;101040.87;;;13.11;49.08
54870;BME280;40756;-37.950;145.008;2022-08-11T09:36:32;101039.05;;;12.48;49.29
54870;BME280;40756;-37.950;145.008;2022-08-11T09:39:03;101039.47;;;12.28;50.10
54870;BME280;40756;-37.950;145.008;2022-08-11T09:41:33;101037.55;;;12.70;49.74
54870;BME280;40756;-37.950;145.008;2022-08-11T09:44:04;101042.80;;;12.86;49.43
54870;BME280;40756;-37.950;145.008;2022-08-11T09:46:33;101042.13;;;12.50;49.34
54870;BME280;40756;-37.950;145.008;2022-08-11T09:49:04;101049.15;;;12.62;49.88
54870;BME280;40756;-37.950;145.008;2022-08-11T09:51:34;101045.39;;;12.57;49.43
54870;BME280;40756;-37.950;145.008;2022-08-11T09:54:05;101047.98;;;12.63;49.56
54870;BME280;40756;-37.950;145.008;2022-08-11T09:56:35;101048.80;;;12.69;50.03
54870;BME280;40756;-37.950;145.008;2022-08-11T09:59:06;101051.05;;;12.72;49.68
54870;BME280;40756;-37.950;145.008;2022-08-11T10:01:38;101051.54;;;12.57;49.78
54870;BME280;40756;-37.950;145.008;2022-08-11T10:04:14;101053.18;;;12.71;49.75
54870;BME280;40756;-37.950;145.008;2022-08-11T10:06:47;101046.96;;;12.92;49.37
54870;BME280;40756;-37.950;145.008;2022-08-11T10:09:23;101057.39;;;12.00;50.78
54870;BME280;40756;-37.950;145.008;2022-08-11T10:11:57;101058.19;;;12.60;49.88
54870;BME280;40756;-37.950;145.008;2022-08-11T10:14:28;101059.62;;;12.71;49.49
54870;BME280;40756;-37.950;145.008;2022-08-11T10:16:59;101061.14;;;12.91;49.11
54870;BME280;40756;-37.950;145.008;2022-08-11T10:19:33;101063.33;;;12.34;49.95
54870;BME280;40756;-37.950;145.008;2022-08-11T10:22:05;101066.84;;;12.34;49.97
54870;BME280;40756;-37.950;145.008;2022-08-11T10:24:34;101064.43;;;12.60;49.49
54870;BME280;40756;-37.950;145.008;2022-08-11T10:27:04;101062.62;;;12.57;49.61
54870;BME280;40756;-37.950;145.008;2022-08-11T10:29:38;101064.27;;;12.34;49.94
54870;BME280;40756;-37.950;145.008;2022-08-11T10:32:09;101066.97;;;12.11;50.18
54870;BME280;40756;-37.950;145.008;2022-08-11T10:34:39;101067.46;;;12.64;49.44
54870;BME280;40756;-37.950;145.008;2022-08-11T10:37:11;101067.44;;;12.57;49.57
54870;BME280;40756;-37.950;145.008;2022-08-11T10:39:43;101069.41;;;12.60;49.62
54870;BME280;40756;-37.950;145.008;2022-08-11T10:42:14;101072.86;;;12.14;49.87
54870;BME280;40756;-37.950;145.008;2022-08-11T10:44:50;101076.75;;;12.43;49.78
54870;BME280;40756;-37.950;145.008;2022-08-11T10:47:21;101075.04;;;12.23;50.10
54870;BME280;40756;-37.950;145.008;2022-08-11T10:49:52;101076.38;;;11.78;50.88
54870;BME280;40756;-37.950;145.008;2022-08-11T10:52:22;101079.08;;;12.25;50.37
54870;BME280;40756;-37.950;145.008;2022-08-11T10:54:53;101077.89;;;12.15;50.30
54870;BME280;40756;-37.950;145.008;2022-08-11T10:57:23;101077.48;;;12.66;49.89
54870;BME280;40756;-37.950;145.008;2022-08-11T10:59:53;101078.97;;;12.23;49.90
54870;BME280;40756;-37.950;145.008;2022-08-11T11:02:24;101081.90;;;12.33;49.71
54870;BME280;40756;-37.950;145.008;2022-08-11T11:05:02;101086.95;;;12.28;49.91
54870;BME280;40756;-37.950;145.008;2022-08-11T11:07:39;101087.24;;;12.18;50.11
54870;BME280;40756;-37.950;145.008;2022-08-11T11:10:16;101094.87;;;12.07;50.45
54870;BME280;40756;-37.950;145.008;2022-08-11T11:12:49;101096.14;;;11.69;50.76
54870;BME280;40756;-37.950;145.008;2022-08-11T11:15:21;101097.22;;;11.75;50.76
54870;BME280;40756;-37.950;145.008;2022-08-11T11:17:54;101094.65;;;12.12;50.16
54870;BME280;40756;-37.950;145.008;2022-08-11T11:20:27;101092.33;;;12.09;50.29
54870;BME280;40756;-37.950;145.008;2022-08-11T11:23:02;101090.80;;;12.19;50.13
54870;BME280;40756;-37.950;145.008;2022-08-11T11:25:59;101089.88;;;12.45;50.40
54870;BME280;40756;-37.950;145.008;2022-08-11T11:28:46;101092.73;;;12.46;50.00
54870;BME280;40756;-37.950;145.008;2022-08-11T11:31:29;101091.11;;;12.22;49.90
54870;BME280;40756;-37.950;145.008;2022-08-11T11:34:14;101093.65;;;12.33;49.66
54870;BME280;40756;-37.950;145.008;2022-08-11T11:36:49;101097.15;;;11.90;50.52
54870;BME280;40756;-37.950;145.008;2022-08-11T11:39:22;101098.01;;;11.95;50.27
54870;BME280;40756;-37.950;145.008;2022-08-11T11:41:54;101101.79;;;12.06;50.25
54870;BME280;40756;-37.950;145.008;2022-08-11T11:44:25;101103.52;;;12.16;50.03
54870;BME280;40756;-37.950;145.008;2022-08-11T11:46:55;101097.36;;;12.26;49.84
54870;BME280;40756;-37.950;145.008;2022-08-11T11:49:30;101101.92;;;12.46;49.82
54870;BME280;40756;-37.950;145.008;2022-08-11T11:52:00;101100.55;;;11.95;50.43
54870;BME280;40756;-37.950;145.008;2022-08-11T11:54:31;101098.92;;;12.19;50.12
54870;BME280;40756;-37.950;145.008;2022-08-11T11:57:02;101100.85;;;12.04;50.23
54870;BME280;40756;-37.950;145.008;2022-08-11T11:59:33;101100.79;;;11.78;50.54
54870;BME280;40756;-37.950;145.008;2022-08-11T12:02:03;101103.37;;;12.20;50.67
54870;BME280;40756;-37.950;145.008;2022-08-11T12:04:33;101101.79;;;12.15;50.09
54870;BME280;40756;-37.950;145.008;2022-08-11T12:07:03;101106.07;;;12.13;50.71
54870;BME280;40756;-37.950;145.008;2022-08-11T12:09:34;101102.09;;;12.80;50.30
54870;BME280;40756;-37.950;145.008;2022-08-11T12:12:05;101106.16;;;12.65;49.57
54870;BME280;40756;-37.950;145.008;2022-08-11T12:14:37;101104.70;;;12.29;49.75
54870;BME280;40756;-37.950;145.008;2022-08-11T12:17:07;101105.33;;;12.34;50.00
54870;BME280;40756;-37.950;145.008;2022-08-11T12:19:37;101103.39;;;12.52;49.79
54870;BME280;40756;-37.950;145.008;2022-08-11T12:22:07;101110.53;;;12.41;49.90
54870;BME280;40756;-37.950;145.008;2022-08-11T12:24:37;101104.18;;;12.28;50.37
54870;BME280;40756;-37.950;145.008;2022-08-11T12:27:07;101112.04;;;12.07;50.97
54870;BME280;40756;-37.950;145.008;2022-08-11T12:29:38;101107.39;;;12.09;51.08
54870;BME280;40756;-37.950;145.008;2022-08-11T12:32:08;101105.79;;;11.68;52.28
54870;BME280;40756;-37.950;145.008;2022-08-11T12:34:37;101114.96;;;12.05;51.97
54870;BME280;40756;-37.950;145.008;2022-08-11T12:37:07;101114.29;;;12.19;51.19
54870;BME280;40756;-37.950;145.008;2022-08-11T12:39:40;101116.09;;;12.56;51.00
54870;BME280;40756;-37.950;145.008;2022-08-11T12:42:15;101121.48;;;11.98;51.61
54870;BME280;40756;-37.950;145.008;2022-08-11T12:44:45;101122.20;;;12.11;51.49
54870;BME280;40756;-37.950;145.008;2022-08-11T12:47:18;101125.92;;;12.52;51.49
54870;BME280;40756;-37.950;145.008;2022-08-11T12:49:49;101118.26;;;12.31;51.34
54870;BME280;40756;-37.950;145.008;2022-08-11T12:52:25;101122.88;;;12.24;51.37
54870;BME280;40756;-37.950;145.008;2022-08-11T12:55:01;101124.91;;;12.28;51.32
54870;BME280;40756;-37.950;145.008;2022-08-11T12:57:36;101124.85;;;12.55;50.86
54870;BME280;40756;-37.950;145.008;2022-08-11T13:00:08;101136.06;;;12.56;51.69
54870;BME280;40756;-37.950;145.008;2022-08-11T13:02:40;101133.10;;;12.26;51.65
54870;BME280;40756;-37.950;145.008;2022-08-11T13:05:13;101124.22;;;12.88;51.35
54870;BME280;40756;-37.950;145.008;2022-08-11T13:07:45;101127.11;;;12.33;51.60
54870;BME280;40756;-37.950;145.008;2022-08-11T13:10:18;101127.50;;;12.46;51.36
54870;BME280;40756;-37.950;145.008;2022-08-11T13:12:49;101129.29;;;12.43;51.19
54870;BME280;40756;-37.950;145.008;2022-08-11T13:15:21;101131.23;;;12.23;51.83
54870;BME280;40756;-37.950;145.008;2022-08-11T13:17:54;101129.63;;;12.41;51.44
54870;BME280;40756;-37.950;145.008;2022-08-11T13:20:27;101125.21;;;12.63;50.95
54870;BME280;40756;-37.950;145.008;2022-08-11T13:22:59;101129.61;;;12.13;51.33
54870;BME280;40756;-37.950;145.008;2022-08-11T13:25:31;101130.79;;;12.41;51.38
54870;BME280;40756;-37.950;145.008;2022-08-11T13:28:02;101128.12;;;12.40;51.39
54870;BME280;40756;-37.950;145.008;2022-08-11T13:30:33;101126.68;;;12.42;51.28
54870;BME280;40756;-37.950;145.008;2022-08-11T13:33:03;101127.09;;;12.52;50.86